sensor_id;sensor_type;location;lat;lon;timestamp;P1;durP1;ratioP1;P2;durP2;ratioP2
23802;SDS011;12082;51.786;6.018;2022-10-28T00:02:14;14.27;;;12.87;;
23802;SDS011;12082;51.786;6.018;2022-10-28T00:04:40;13.73;;;12.23;;
23802;SDS011;12082;51.786;6.018;2022-10-28T00:07:06;17.03;;;13.10;;
23802;SDS011;12082;51.786;6.018;2022-10-28T00:09:32;17.17;;;13.40;;
23802;SDS011;12082;51.786;6.018;2022-10-28T00:11:58;13.30;;;12.10;;
23802;SDS011;12082;51.786;6.018;2022-10-28T00:14:24;17.40;;;14.10;;
23802;SDS011;12082;51.786;6.018;2022-10-28T00:16:50;13.80;;;12.27;;
23802;SDS011;12082;51.786;6.018;2022-10-28T00:19:16;14.13;;;12.53;;
23802;SDS011;12082;51.786;6.018;2022-10-28T00:21:42;13.27;;;12.13;;
23802;SDS011;12082;51.786;6.018;2022-10-28T00:24:09;14.57;;;12.00;;
23802;SDS011;12082;51.786;6.018;2022-10-28T00:26:36;20.33;;;13.40;;
23802;SDS011;12082;51.786;6.018;2022-10-28T00:29:03;13.03;;;11.73;;
23802;SDS011;12082;51.786;6.018;2022-10-28T00:31:30;16.70;;;12.53;;
23802;SDS011;12082;51.786;6.018;2022-10-28T00:34:00;13.67;;;12.27;;
23802;SDS011;12082;51.786;6.018;2022-10-28T00:36:27;14.30;;;12.00;;
23802;SDS011;12082;51.786;6.018;2022-10-28T00:38:53;13.27;;;11.80;;
23802;SDS011;12082;51.786;6.018;2022-10-28T00:41:23;13.07;;;11.70;;
23802;SDS011;12082;51.786;6.018;2022-10-28T00:43:51;15.33;;;12.47;;
23802;SDS011;12082;51.786;6.018;2022-10-28T00:49:03;12.77;;;11.63;;
23802;SDS011;12082;51.786;6.018;2022-10-28T00:51:31;16.57;;;13.23;;
23802;SDS011;12082;51.786;6.018;2022-10-28T00:53:58;15.27;;;12.20;;
23802;SDS011;12082;51.786;6.018;2022-10-28T00:56:25;17.90;;;13.00;;
23802;SDS011;12082;51.786;6.018;2022-10-28T00:58:54;14.17;;;12.57;;
23802;SDS011;12082;51.786;6.018;2022-10-28T01:01:20;18.00;;;12.40;;
23802;SDS011;12082;51.786;6.018;2022-10-28T01:03:47;17.10;;;13.30;;
23802;SDS011;12082;51.786;6.018;2022-10-28T01:06:13;14.93;;;12.90;;
23802;SDS011;12082;51.786;6.018;2022-10-28T01:08:39;14.87;;;12.73;;
23802;SDS011;12082;51.786;6.018;2022-10-28T01:16:09;14.37;;;12.77;;
23802;SDS011;12082;51.786;6.018;2022-10-28T01:18:44;18.23;;;12.97;;
23802;SDS011;12082;51.786;6.018;2022-10-28T01:26:28;18.57;;;12.57;;
23802;SDS011;12082;51.786;6.018;2022-10-28T01:31:43;16.17;;;12.83;;
23802;SDS011;12082;51.786;6.018;2022-10-28T01:34:13;23.93;;;14.20;;
23802;SDS011;12082;51.786;6.018;2022-10-28T01:42:25;23.73;;;14.50;;
23802;SDS011;12082;51.786;6.018;2022-10-28T01:49:53;20.43;;;15.20;;
23802;SDS011;12082;51.786;6.018;2022-10-28T01:52:23;18.70;;;13.83;;
23802;SDS011;12082;51.786;6.018;2022-10-28T01:54:52;21.77;;;13.83;;
23802;SDS011;12082;51.786;6.018;2022-10-28T01:57:19;21.27;;;14.03;;
23802;SDS011;12082;51.786;6.018;2022-10-28T01:59:47;16.23;;;14.40;;
23802;SDS011;12082;51.786;6.018;2022-10-28T02:02:13;17.87;;;13.73;;
23802;SDS011;12082;51.786;6.018;2022-10-28T02:04:39;17.40;;;12.87;;
23802;SDS011;12082;51.786;6.018;2022-10-28T02:07:05;21.53;;;13.33;;
23802;SDS011;12082;51.786;6.018;2022-10-28T02:25:30;18.43;;;12.00;;
23802;SDS011;12082;51.786;6.018;2022-10-28T02:27:58;17.80;;;11.63;;
23802;SDS011;12082;51.786;6.018;2022-10-28T02:30:28;17.97;;;10.67;;
23802;SDS011;12082;51.786;6.018;2022-10-28T02:32:58;16.57;;;10.97;;
23802;SDS011;12082;51.786;6.018;2022-10-28T02:36:08;16.30;;;10.50;;
23802;SDS011;12082;51.786;6.018;2022-10-28T02:38:16;19.20;;;10.83;;
23802;SDS011;12082;51.786;6.018;2022-10-28T02:40:43;12.97;;;9.73;;
23802;SDS011;12082;51.786;6.018;2022-10-28T02:43:12;20.27;;;10.77;;
23802;SDS011;12082;51.786;6.018;2022-10-28T02:45:39;16.30;;;11.40;;
23802;SDS011;12082;51.786;6.018;2022-10-28T02:48:07;12.50;;;11.27;;
23802;SDS011;12082;51.786;6.018;2022-10-28T02:50:35;20.77;;;10.80;;
23802;SDS011;12082;51.786;6.018;2022-10-28T02:53:03;15.13;;;10.57;;
23802;SDS011;12082;51.786;6.018;2022-10-28T02:55:34;13.67;;;10.93;;
23802;SDS011;12082;51.786;6.018;2022-10-28T02:58:01;11.87;;;9.97;;
23802;SDS011;12082;51.786;6.018;2022-10-28T03:00:28;13.80;;;10.07;;
23802;SDS011;12082;51.786;6.018;2022-10-28T03:02:54;15.43;;;9.70;;
23802;SDS011;12082;51.786;6.018;2022-10-28T03:05:20;14.47;;;9.50;;
23802;SDS011;12082;51.786;6.018;2022-10-28T03:07:45;17.20;;;10.37;;
23802;SDS011;12082;51.786;6.018;2022-10-28T03:10:11;15.37;;;10.13;;
23802;SDS011;12082;51.786;6.018;2022-10-28T03:12:37;10.87;;;9.33;;
23802;SDS011;12082;51.786;6.018;2022-10-28T03:15:03;13.87;;;9.63;;
23802;SDS011;12082;51.786;6.018;2022-10-28T03:17:30;18.80;;;10.50;;
23802;SDS011;12082;51.786;6.018;2022-10-28T03:19:55;18.27;;;9.40;;
23802;SDS011;12082;51.786;6.018;2022-10-28T03:22:21;9.90;;;8.97;;
23802;SDS011;12082;51.786;6.018;2022-10-28T03:24:47;18.20;;;10.17;;
23802;SDS011;12082;51.786;6.018;2022-10-28T03:27:13;13.57;;;10.20;;
23802;SDS011;12082;51.786;6.018;2022-10-28T03:29:39;20.67;;;10.40;;
23802;SDS011;12082;51.786;6.018;2022-10-28T03:32:05;19.30;;;10.83;;
23802;SDS011;12082;51.786;6.018;2022-10-28T03:34:31;13.57;;;10.37;;
23802;SDS011;12082;51.786;6.018;2022-10-28T03:36:57;15.03;;;10.07;;
23802;SDS011;12082;51.786;6.018;2022-10-28T03:39:23;14.13;;;9.37;;
23802;SDS011;12082;51.786;6.018;2022-10-28T03:41:49;20.70;;;10.63;;
23802;SDS011;12082;51.786;6.018;2022-10-28T03:44:15;20.17;;;9.93;;
23802;SDS011;12082;51.786;6.018;2022-10-28T03:46:41;14.47;;;9.90;;
23802;SDS011;12082;51.786;6.018;2022-10-28T03:49:07;14.33;;;9.73;;
23802;SDS011;12082;51.786;6.018;2022-10-28T03:51:33;14.97;;;9.97;;
23802;SDS011;12082;51.786;6.018;2022-10-28T03:53:59;14.20;;;9.43;;
23802;SDS011;12082;51.786;6.018;2022-10-28T03:56:25;11.77;;;9.80;;
23802;SDS011;12082;51.786;6.018;2022-10-28T03:58:51;12.50;;;9.77;;
23802;SDS011;12082;51.786;6.018;2022-10-28T04:01:17;14.43;;;9.67;;
23802;SDS011;12082;51.786;6.018;2022-10-28T04:03:43;18.10;;;9.60;;
23802;SDS011;12082;51.786;6.018;2022-10-28T04:06:09;14.53;;;9.47;;
23802;SDS011;12082;51.786;6.018;2022-10-28T04:08:35;14.43;;;9.73;;
23802;SDS011;12082;51.786;6.018;2022-10-28T04:11:01;13.33;;;9.77;;
23802;SDS011;12082;51.786;6.018;2022-10-28T04:13:27;16.20;;;9.80;;
23802;SDS011;12082;51.786;6.018;2022-10-28T04:15:53;14.63;;;10.13;;
23802;SDS011;12082;51.786;6.018;2022-10-28T04:18:19;14.97;;;10.10;;
23802;SDS011;12082;51.786;6.018;2022-10-28T04:20:45;15.97;;;10.50;;
23802;SDS011;12082;51.786;6.018;2022-10-28T04:23:15;17.90;;;10.17;;
23802;SDS011;12082;51.786;6.018;2022-10-28T04:25:44;15.87;;;10.80;;
23802;SDS011;12082;51.786;6.018;2022-10-28T04:28:10;16.93;;;9.97;;
23802;SDS011;12082;51.786;6.018;2022-10-28T04:30:36;16.67;;;10.40;;
23802;SDS011;12082;51.786;6.018;2022-10-28T04:33:02;17.90;;;10.70;;
23802;SDS011;12082;51.786;6.018;2022-10-28T04:35:28;13.40;;;10.17;;
23802;SDS011;12082;51.786;6.018;2022-10-28T04:37:54;10.87;;;9.77;;
23802;SDS011;12082;51.786;6.018;2022-10-28T04:40:20;13.13;;;9.37;;
23802;SDS011;12082;51.786;6.018;2022-10-28T04:42:46;12.83;;;9.83;;
23802;SDS011;12082;51.786;6.018;2022-10-28T04:45:12;17.57;;;10.60;;
23802;SDS011;12082;51.786;6.018;2022-10-28T04:47:39;12.93;;;10.83;;
23802;SDS011;12082;51.786;6.018;2022-10-28T04:50:05;17.47;;;10.27;;
23802;SDS011;12082;51.786;6.018;2022-10-28T04:52:31;19.67;;;10.73;;
23802;SDS011;12082;51.786;6.018;2022-10-28T04:54:57;16.83;;;11.27;;
23802;SDS011;12082;51.786;6.018;2022-10-28T04:57:23;13.93;;;10.57;;
23802;SDS011;12082;51.786;6.018;2022-10-28T04:59:49;12.27;;;10.60;;
23802;SDS011;12082;51.786;6.018;2022-10-28T05:02:15;17.47;;;11.10;;
23802;SDS011;12082;51.786;6.018;2022-10-28T05:04:41;18.27;;;9.83;;
23802;SDS011;12082;51.786;6.018;2022-10-28T05:07:07;14.83;;;10.37;;
23802;SDS011;12082;51.786;6.018;2022-10-28T05:09:33;20.87;;;11.53;;
23802;SDS011;12082;51.786;6.018;2022-10-28T05:11:59;11.97;;;10.20;;
23802;SDS011;12082;51.786;6.018;2022-10-28T05:14:25;18.03;;;9.73;;
23802;SDS011;12082;51.786;6.018;2022-10-28T05:16:51;16.70;;;10.57;;
23802;SDS011;12082;51.786;6.018;2022-10-28T05:19:17;17.80;;;9.93;;
23802;SDS011;12082;51.786;6.018;2022-10-28T05:21:43;13.63;;;9.80;;
23802;SDS011;12082;51.786;6.018;2022-10-28T05:24:09;18.67;;;10.43;;
23802;SDS011;12082;51.786;6.018;2022-10-28T05:26:35;18.43;;;11.03;;
23802;SDS011;12082;51.786;6.018;2022-10-28T05:29:01;18.93;;;9.97;;
23802;SDS011;12082;51.786;6.018;2022-10-28T05:31:27;20.63;;;10.00;;
23802;SDS011;12082;51.786;6.018;2022-10-28T05:33:53;13.03;;;10.67;;
23802;SDS011;12082;51.786;6.018;2022-10-28T05:36:20;11.93;;;9.73;;
23802;SDS011;12082;51.786;6.018;2022-10-28T05:38:46;15.60;;;9.97;;
23802;SDS011;12082;51.786;6.018;2022-10-28T05:41:13;16.30;;;10.87;;
23802;SDS011;12082;51.786;6.018;2022-10-28T05:43:39;14.90;;;10.30;;
23802;SDS011;12082;51.786;6.018;2022-10-28T05:46:05;16.93;;;10.27;;
23802;SDS011;12082;51.786;6.018;2022-10-28T05:48:31;17.30;;;10.97;;
23802;SDS011;12082;51.786;6.018;2022-10-28T05:50:57;13.10;;;10.47;;
23802;SDS011;12082;51.786;6.018;2022-10-28T05:53:23;17.60;;;11.20;;
23802;SDS011;12082;51.786;6.018;2022-10-28T05:55:49;21.47;;;10.40;;
23802;SDS011;12082;51.786;6.018;2022-10-28T05:58:15;22.57;;;11.50;;
23802;SDS011;12082;51.786;6.018;2022-10-28T06:00:41;13.67;;;10.93;;
23802;SDS011;12082;51.786;6.018;2022-10-28T06:03:09;12.87;;;10.13;;
23802;SDS011;12082;51.786;6.018;2022-10-28T06:05:36;19.53;;;11.07;;
23802;SDS011;12082;51.786;6.018;2022-10-28T06:08:03;17.90;;;11.27;;
23802;SDS011;12082;51.786;6.018;2022-10-28T06:10:30;15.50;;;10.67;;
23802;SDS011;12082;51.786;6.018;2022-10-28T06:12:56;21.53;;;11.37;;
23802;SDS011;12082;51.786;6.018;2022-10-28T06:15:22;16.00;;;11.47;;
23802;SDS011;12082;51.786;6.018;2022-10-28T06:17:48;11.97;;;10.60;;
23802;SDS011;12082;51.786;6.018;2022-10-28T06:20:15;21.13;;;11.83;;
23802;SDS011;12082;51.786;6.018;2022-10-28T06:22:51;18.90;;;11.40;;
23802;SDS011;12082;51.786;6.018;2022-10-28T06:25:18;21.23;;;10.97;;
23802;SDS011;12082;51.786;6.018;2022-10-28T06:27:44;15.07;;;11.03;;
23802;SDS011;12082;51.786;6.018;2022-10-28T06:30:10;16.33;;;10.83;;
23802;SDS011;12082;51.786;6.018;2022-10-28T06:32:36;13.03;;;10.83;;
23802;SDS011;12082;51.786;6.018;2022-10-28T06:35:02;14.97;;;10.80;;
23802;SDS011;12082;51.786;6.018;2022-10-28T06:37:28;16.47;;;10.27;;
23802;SDS011;12082;51.786;6.018;2022-10-28T06:39:54;16.77;;;11.20;;
23802;SDS011;12082;51.786;6.018;2022-10-28T06:42:22;13.53;;;10.83;;
23802;SDS011;12082;51.786;6.018;2022-10-28T06:44:48;17.90;;;10.80;;
23802;SDS011;12082;51.786;6.018;2022-10-28T06:47:16;17.17;;;11.03;;
23802;SDS011;12082;51.786;6.018;2022-10-28T06:49:42;12.27;;;11.10;;
23802;SDS011;12082;51.786;6.018;2022-10-28T06:52:08;16.07;;;11.00;;
23802;SDS011;12082;51.786;6.018;2022-10-28T06:54:33;14.53;;;11.03;;
23802;SDS011;12082;51.786;6.018;2022-10-28T06:56:59;16.57;;;10.83;;
23802;SDS011;12082;51.786;6.018;2022-10-28T06:59:25;16.87;;;10.43;;
23802;SDS011;12082;51.786;6.018;2022-10-28T07:01:51;17.63;;;11.00;;
23802;SDS011;12082;51.786;6.018;2022-10-28T07:04:17;17.60;;;10.97;;
23802;SDS011;12082;51.786;6.018;2022-10-28T07:06:43;16.60;;;10.50;;
23802;SDS011;12082;51.786;6.018;2022-10-28T07:09:10;14.60;;;10.53;;
23802;SDS011;12082;51.786;6.018;2022-10-28T07:11:38;17.37;;;10.60;;
23802;SDS011;12082;51.786;6.018;2022-10-28T07:14:04;17.20;;;10.67;;
23802;SDS011;12082;51.786;6.018;2022-10-28T07:16:29;13.50;;;10.57;;
23802;SDS011;12082;51.786;6.018;2022-10-28T07:18:55;13.00;;;10.90;;
23802;SDS011;12082;51.786;6.018;2022-10-28T07:21:21;14.00;;;10.07;;
23802;SDS011;12082;51.786;6.018;2022-10-28T07:23:52;15.27;;;9.80;;
23802;SDS011;12082;51.786;6.018;2022-10-28T07:26:18;17.40;;;9.97;;
23802;SDS011;12082;51.786;6.018;2022-10-28T07:28:44;19.67;;;9.93;;
23802;SDS011;12082;51.786;6.018;2022-10-28T07:31:10;14.13;;;10.07;;
23802;SDS011;12082;51.786;6.018;2022-10-28T07:33:36;12.47;;;11.00;;
23802;SDS011;12082;51.786;6.018;2022-10-28T07:36:02;11.30;;;9.83;;
23802;SDS011;12082;51.786;6.018;2022-10-28T07:38:28;14.27;;;10.27;;
23802;SDS011;12082;51.786;6.018;2022-10-28T07:40:55;15.83;;;9.33;;
23802;SDS011;12082;51.786;6.018;2022-10-28T07:43:20;15.03;;;10.20;;
23802;SDS011;12082;51.786;6.018;2022-10-28T07:48:22;16.17;;;10.30;;
23802;SDS011;12082;51.786;6.018;2022-10-28T07:50:48;14.87;;;9.70;;
23802;SDS011;12082;51.786;6.018;2022-10-28T07:53:14;16.37;;;10.47;;
23802;SDS011;12082;51.786;6.018;2022-10-28T07:55:40;14.90;;;9.77;;
23802;SDS011;12082;51.786;6.018;2022-10-28T07:58:06;17.20;;;9.93;;
23802;SDS011;12082;51.786;6.018;2022-10-28T08:00:32;19.50;;;10.63;;
23802;SDS011;12082;51.786;6.018;2022-10-28T08:02:58;15.37;;;10.20;;
23802;SDS011;12082;51.786;6.018;2022-10-28T08:05:24;22.40;;;11.20;;
23802;SDS011;12082;51.786;6.018;2022-10-28T08:07:50;16.03;;;9.37;;
23802;SDS011;12082;51.786;6.018;2022-10-28T08:10:16;12.37;;;9.97;;
23802;SDS011;12082;51.786;6.018;2022-10-28T08:12:42;16.30;;;9.63;;
23802;SDS011;12082;51.786;6.018;2022-10-28T08:15:10;18.67;;;10.63;;
23802;SDS011;12082;51.786;6.018;2022-10-28T08:17:38;21.37;;;10.40;;
23802;SDS011;12082;51.786;6.018;2022-10-28T08:20:04;16.67;;;9.37;;
23802;SDS011;12082;51.786;6.018;2022-10-28T08:22:30;19.00;;;9.53;;
23802;SDS011;12082;51.786;6.018;2022-10-28T08:24:56;19.70;;;9.57;;
23802;SDS011;12082;51.786;6.018;2022-10-28T08:27:22;16.63;;;9.63;;
23802;SDS011;12082;51.786;6.018;2022-10-28T08:29:48;16.00;;;8.50;;
23802;SDS011;12082;51.786;6.018;2022-10-28T08:32:14;16.10;;;9.53;;
23802;SDS011;12082;51.786;6.018;2022-10-28T08:34:40;12.13;;;8.60;;
23802;SDS011;12082;51.786;6.018;2022-10-28T08:37:06;14.17;;;9.17;;
23802;SDS011;12082;51.786;6.018;2022-10-28T08:39:32;20.07;;;8.70;;
23802;SDS011;12082;51.786;6.018;2022-10-28T08:42:19;15.70;;;8.27;;
23802;SDS011;12082;51.786;6.018;2022-10-28T08:45:10;16.90;;;8.77;;
23802;SDS011;12082;51.786;6.018;2022-10-28T08:50:16;16.47;;;8.87;;
23802;SDS011;12082;51.786;6.018;2022-10-28T09:00:11;17.47;;;8.17;;
23802;SDS011;12082;51.786;6.018;2022-10-28T09:02:45;19.97;;;8.10;;
23802;SDS011;12082;51.786;6.018;2022-10-28T09:05:22;18.00;;;8.70;;
23802;SDS011;12082;51.786;6.018;2022-10-28T09:07:48;11.87;;;7.97;;
23802;SDS011;12082;51.786;6.018;2022-10-28T09:10:14;17.90;;;8.37;;
23802;SDS011;12082;51.786;6.018;2022-10-28T09:15:39;19.87;;;9.10;;
23802;SDS011;12082;51.786;6.018;2022-10-28T09:23:08;18.57;;;9.07;;
23802;SDS011;12082;51.786;6.018;2022-10-28T09:25:48;19.87;;;9.63;;
23802;SDS011;12082;51.786;6.018;2022-10-28T09:28:31;20.10;;;10.00;;
23802;SDS011;12082;51.786;6.018;2022-10-28T09:31:16;21.77;;;9.03;;
23802;SDS011;12082;51.786;6.018;2022-10-28T09:33:50;10.80;;;8.70;;
23802;SDS011;12082;51.786;6.018;2022-10-28T09:36:21;10.70;;;7.60;;
23802;SDS011;12082;51.786;6.018;2022-10-28T09:38:49;13.60;;;9.63;;
23802;SDS011;12082;51.786;6.018;2022-10-28T09:41:23;15.87;;;8.57;;
23802;SDS011;12082;51.786;6.018;2022-10-28T09:44:33;16.70;;;7.77;;
23802;SDS011;12082;51.786;6.018;2022-10-28T09:46:39;13.63;;;9.20;;
23802;SDS011;12082;51.786;6.018;2022-10-28T09:49:09;17.80;;;9.47;;
23802;SDS011;12082;51.786;6.018;2022-10-28T09:51:44;15.53;;;8.27;;
23802;SDS011;12082;51.786;6.018;2022-10-28T09:54:11;15.97;;;9.30;;
23802;SDS011;12082;51.786;6.018;2022-10-28T09:56:37;18.17;;;8.97;;
23802;SDS011;12082;51.786;6.018;2022-10-28T09:59:03;19.93;;;9.10;;
23802;SDS011;12082;51.786;6.018;2022-10-28T10:01:32;22.23;;;9.83;;
23802;SDS011;12082;51.786;6.018;2022-10-28T10:03:58;19.67;;;9.67;;
23802;SDS011;12082;51.786;6.018;2022-10-28T10:06:26;13.77;;;9.17;;
23802;SDS011;12082;51.786;6.018;2022-10-28T10:08:56;13.07;;;8.40;;
23802;SDS011;12082;51.786;6.018;2022-10-28T10:11:26;19.77;;;9.40;;
23802;SDS011;12082;51.786;6.018;2022-10-28T10:13:54;15.80;;;8.23;;
23802;SDS011;12082;51.786;6.018;2022-10-28T10:16:22;15.40;;;8.20;;
23802;SDS011;12082;51.786;6.018;2022-10-28T10:18:52;15.13;;;8.10;;
23802;SDS011;12082;51.786;6.018;2022-10-28T10:24:19;19.67;;;8.37;;
23802;SDS011;12082;51.786;6.018;2022-10-28T10:26:45;15.57;;;8.90;;
23802;SDS011;12082;51.786;6.018;2022-10-28T10:29:11;15.37;;;8.83;;
23802;SDS011;12082;51.786;6.018;2022-10-28T10:31:38;11.63;;;8.87;;
23802;SDS011;12082;51.786;6.018;2022-10-28T10:34:04;18.77;;;8.93;;
23802;SDS011;12082;51.786;6.018;2022-10-28T10:36:30;21.67;;;8.53;;
23802;SDS011;12082;51.786;6.018;2022-10-28T10:39:00;20.70;;;9.30;;
23802;SDS011;12082;51.786;6.018;2022-10-28T10:41:42;15.67;;;8.10;;
23802;SDS011;12082;51.786;6.018;2022-10-28T10:46:49;11.50;;;7.60;;
23802;SDS011;12082;51.786;6.018;2022-10-28T10:49:33;15.57;;;8.13;;
23802;SDS011;12082;51.786;6.018;2022-10-28T10:54:26;18.87;;;8.23;;
23802;SDS011;12082;51.786;6.018;2022-10-28T10:56:54;16.50;;;8.13;;
23802;SDS011;12082;51.786;6.018;2022-10-28T10:59:30;14.90;;;8.10;;
23802;SDS011;12082;51.786;6.018;2022-10-28T11:01:57;16.53;;;8.53;;
23802;SDS011;12082;51.786;6.018;2022-10-28T11:04:24;12.23;;;8.00;;
23802;SDS011;12082;51.786;6.018;2022-10-28T11:06:51;26.47;;;8.90;;
23802;SDS011;12082;51.786;6.018;2022-10-28T11:11:44;12.97;;;8.03;;
23802;SDS011;12082;51.786;6.018;2022-10-28T11:16:46;22.67;;;9.17;;
23802;SDS011;12082;51.786;6.018;2022-10-28T11:19:19;17.37;;;8.20;;
23802;SDS011;12082;51.786;6.018;2022-10-28T11:24:27;16.83;;;8.40;;
23802;SDS011;12082;51.786;6.018;2022-10-28T11:29:23;11.40;;;7.80;;
23802;SDS011;12082;51.786;6.018;2022-10-28T11:37:10;15.10;;;7.43;;
23802;SDS011;12082;51.786;6.018;2022-10-28T11:39:41;18.97;;;8.53;;
23802;SDS011;12082;51.786;6.018;2022-10-28T11:50:06;14.33;;;8.83;;
23802;SDS011;12082;51.786;6.018;2022-10-28T11:52:42;20.40;;;8.80;;
23802;SDS011;12082;51.786;6.018;2022-10-28T11:55:21;16.60;;;8.70;;
23802;SDS011;12082;51.786;6.018;2022-10-28T12:10:30;19.70;;;8.97;;
23802;SDS011;12082;51.786;6.018;2022-10-28T12:13:09;13.20;;;7.50;;
23802;SDS011;12082;51.786;6.018;2022-10-28T12:18:22;16.70;;;7.87;;
23802;SDS011;12082;51.786;6.018;2022-10-28T12:21:05;13.17;;;8.23;;
23802;SDS011;12082;51.786;6.018;2022-10-28T12:23:33;16.17;;;7.50;;
23802;SDS011;12082;51.786;6.018;2022-10-28T12:26:01;16.23;;;8.13;;
23802;SDS011;12082;51.786;6.018;2022-10-28T12:28:32;23.10;;;9.97;;
23802;SDS011;12082;51.786;6.018;2022-10-28T12:31:02;13.03;;;8.20;;
23802;SDS011;12082;51.786;6.018;2022-10-28T12:33:34;15.93;;;8.23;;
23802;SDS011;12082;51.786;6.018;2022-10-28T12:41:16;16.33;;;8.27;;
23802;SDS011;12082;51.786;6.018;2022-10-28T12:43:45;14.27;;;8.50;;
23802;SDS011;12082;51.786;6.018;2022-10-28T12:48:54;14.33;;;8.73;;
23802;SDS011;12082;51.786;6.018;2022-10-28T12:51:22;16.30;;;8.17;;
23802;SDS011;12082;51.786;6.018;2022-10-28T12:53:54;20.63;;;8.60;;
23802;SDS011;12082;51.786;6.018;2022-10-28T12:57:08;17.37;;;7.80;;
23802;SDS011;12082;51.786;6.018;2022-10-28T12:59:14;20.97;;;8.27;;
23802;SDS011;12082;51.786;6.018;2022-10-28T13:01:42;16.33;;;8.10;;
23802;SDS011;12082;51.786;6.018;2022-10-28T13:04:12;14.97;;;7.87;;
23802;SDS011;12082;51.786;6.018;2022-10-28T13:09:14;14.67;;;7.10;;
23802;SDS011;12082;51.786;6.018;2022-10-28T13:11:52;15.73;;;7.93;;
23802;SDS011;12082;51.786;6.018;2022-10-28T13:27:24;15.53;;;7.57;;
23802;SDS011;12082;51.786;6.018;2022-10-28T13:29:52;13.13;;;7.80;;
23802;SDS011;12082;51.786;6.018;2022-10-28T13:32:33;19.57;;;7.97;;
23802;SDS011;12082;51.786;6.018;2022-10-28T13:35:00;19.10;;;8.73;;
23802;SDS011;12082;51.786;6.018;2022-10-28T13:37:32;14.90;;;7.90;;
23802;SDS011;12082;51.786;6.018;2022-10-28T13:39:58;21.73;;;8.30;;
23802;SDS011;12082;51.786;6.018;2022-10-28T13:52:27;16.97;;;8.23;;
23802;SDS011;12082;51.786;6.018;2022-10-28T13:54:53;16.57;;;7.90;;
23802;SDS011;12082;51.786;6.018;2022-10-28T13:57:34;16.90;;;7.87;;
23802;SDS011;12082;51.786;6.018;2022-10-28T14:00:04;16.83;;;7.43;;
23802;SDS011;12082;51.786;6.018;2022-10-28T14:02:46;9.07;;;7.37;;
23802;SDS011;12082;51.786;6.018;2022-10-28T14:05:14;14.87;;;7.57;;
23802;SDS011;12082;51.786;6.018;2022-10-28T14:07:56;17.40;;;9.23;;
23802;SDS011;12082;51.786;6.018;2022-10-28T14:15:31;16.60;;;8.33;;
23802;SDS011;12082;51.786;6.018;2022-10-28T14:18:20;21.47;;;8.03;;
23802;SDS011;12082;51.786;6.018;2022-10-28T14:44:06;12.73;;;8.30;;
23802;SDS011;12082;51.786;6.018;2022-10-28T14:49:15;15.87;;;8.63;;
23802;SDS011;12082;51.786;6.018;2022-10-28T14:51:42;17.53;;;9.00;;
23802;SDS011;12082;51.786;6.018;2022-10-28T14:54:15;17.27;;;8.00;;
23802;SDS011;12082;51.786;6.018;2022-10-28T14:56:42;14.17;;;9.37;;
23802;SDS011;12082;51.786;6.018;2022-10-28T14:59:29;15.47;;;9.07;;
23802;SDS011;12082;51.786;6.018;2022-10-28T15:04:41;12.23;;;7.67;;
23802;SDS011;12082;51.786;6.018;2022-10-28T15:07:10;16.27;;;8.63;;
23802;SDS011;12082;51.786;6.018;2022-10-28T15:09:38;11.60;;;7.80;;
23802;SDS011;12082;51.786;6.018;2022-10-28T15:12:07;18.03;;;8.10;;
23802;SDS011;12082;51.786;6.018;2022-10-28T15:14:35;20.17;;;8.63;;
23802;SDS011;12082;51.786;6.018;2022-10-28T15:17:09;13.90;;;8.23;;
23802;SDS011;12082;51.786;6.018;2022-10-28T15:19:36;17.40;;;8.40;;
23802;SDS011;12082;51.786;6.018;2022-10-28T15:22:44;16.73;;;8.53;;
23802;SDS011;12082;51.786;6.018;2022-10-28T15:24:56;19.03;;;8.93;;
23802;SDS011;12082;51.786;6.018;2022-10-28T15:27:23;21.53;;;8.90;;
23802;SDS011;12082;51.786;6.018;2022-10-28T15:29:49;17.00;;;9.13;;
23802;SDS011;12082;51.786;6.018;2022-10-28T15:34:44;17.43;;;8.17;;
23802;SDS011;12082;51.786;6.018;2022-10-28T15:37:14;13.60;;;7.87;;
23802;SDS011;12082;51.786;6.018;2022-10-28T15:39:41;9.00;;;7.90;;
23802;SDS011;12082;51.786;6.018;2022-10-28T15:42:29;14.70;;;7.80;;
23802;SDS011;12082;51.786;6.018;2022-10-28T15:44:56;15.67;;;8.13;;
23802;SDS011;12082;51.786;6.018;2022-10-28T15:47:25;16.23;;;7.77;;
23802;SDS011;12082;51.786;6.018;2022-10-28T15:50:02;15.00;;;8.83;;
23802;SDS011;12082;51.786;6.018;2022-10-28T15:54:58;15.37;;;8.60;;
23802;SDS011;12082;51.786;6.018;2022-10-28T15:57:26;11.83;;;7.97;;
23802;SDS011;12082;51.786;6.018;2022-10-28T16:02:38;18.40;;;8.30;;
23802;SDS011;12082;51.786;6.018;2022-10-28T16:05:14;14.67;;;8.00;;
23802;SDS011;12082;51.786;6.018;2022-10-28T16:07:50;13.07;;;7.77;;
23802;SDS011;12082;51.786;6.018;2022-10-28T16:10:16;10.90;;;8.17;;
23802;SDS011;12082;51.786;6.018;2022-10-28T16:12:43;9.97;;;7.50;;
23802;SDS011;12082;51.786;6.018;2022-10-28T16:15:12;10.73;;;8.33;;
23802;SDS011;12082;51.786;6.018;2022-10-28T16:17:39;11.67;;;8.03;;
23802;SDS011;12082;51.786;6.018;2022-10-28T16:20:13;13.57;;;9.17;;
23802;SDS011;12082;51.786;6.018;2022-10-28T16:22:39;13.77;;;9.07;;
23802;SDS011;12082;51.786;6.018;2022-10-28T16:25:15;19.77;;;9.40;;
23802;SDS011;12082;51.786;6.018;2022-10-28T16:27:41;11.90;;;8.60;;
23802;SDS011;12082;51.786;6.018;2022-10-28T16:30:08;12.30;;;9.83;;
23802;SDS011;12082;51.786;6.018;2022-10-28T16:32:40;12.20;;;10.30;;
23802;SDS011;12082;51.786;6.018;2022-10-28T16:35:11;10.90;;;8.90;;
23802;SDS011;12082;51.786;6.018;2022-10-28T16:37:38;12.83;;;9.73;;
23802;SDS011;12082;51.786;6.018;2022-10-28T16:40:05;10.57;;;9.40;;
23802;SDS011;12082;51.786;6.018;2022-10-28T16:42:31;13.23;;;9.80;;
23802;SDS011;12082;51.786;6.018;2022-10-28T16:44:57;11.03;;;9.13;;
23802;SDS011;12082;51.786;6.018;2022-10-28T16:47:23;14.97;;;8.80;;
23802;SDS011;12082;51.786;6.018;2022-10-28T16:49:50;11.83;;;9.77;;
23802;SDS011;12082;51.786;6.018;2022-10-28T16:52:17;11.50;;;9.47;;
23802;SDS011;12082;51.786;6.018;2022-10-28T16:54:44;15.63;;;10.53;;
23802;SDS011;12082;51.786;6.018;2022-10-28T16:57:10;13.63;;;9.87;;
23802;SDS011;12082;51.786;6.018;2022-10-28T16:59:35;12.50;;;9.67;;
23802;SDS011;12082;51.786;6.018;2022-10-28T17:02:01;12.67;;;9.83;;
23802;SDS011;12082;51.786;6.018;2022-10-28T17:04:27;13.00;;;9.87;;
23802;SDS011;12082;51.786;6.018;2022-10-28T17:06:54;14.40;;;10.47;;
23802;SDS011;12082;51.786;6.018;2022-10-28T17:09:19;15.03;;;10.67;;
23802;SDS011;12082;51.786;6.018;2022-10-28T17:11:45;12.07;;;10.50;;
23802;SDS011;12082;51.786;6.018;2022-10-28T17:14:11;17.43;;;11.80;;
23802;SDS011;12082;51.786;6.018;2022-10-28T17:16:37;16.70;;;11.37;;
23802;SDS011;12082;51.786;6.018;2022-10-28T17:19:03;14.00;;;11.20;;
23802;SDS011;12082;51.786;6.018;2022-10-28T17:21:29;14.10;;;11.40;;
23802;SDS011;12082;51.786;6.018;2022-10-28T17:23:55;14.93;;;10.57;;
23802;SDS011;12082;51.786;6.018;2022-10-28T17:26:21;19.97;;;11.73;;
23802;SDS011;12082;51.786;6.018;2022-10-28T17:28:50;19.60;;;11.27;;
23802;SDS011;12082;51.786;6.018;2022-10-28T17:31:16;19.30;;;10.97;;
23802;SDS011;12082;51.786;6.018;2022-10-28T17:33:44;12.73;;;10.20;;
23802;SDS011;12082;51.786;6.018;2022-10-28T17:36:10;18.87;;;11.00;;
23802;SDS011;12082;51.786;6.018;2022-10-28T17:38:36;14.03;;;10.20;;
23802;SDS011;12082;51.786;6.018;2022-10-28T17:41:02;17.87;;;10.37;;